map of OCF home
OCF - Airport
Location
City:  Ocala, Florida, United States
Name:Ocala International-Jim Taylor Field
ICAO:KOCF
IATA:OCF
FAA LID:OCF

Details
Type:Airport (Part 139 Class IV)
Use:Public/Civil
Latitude:2910'19"N (29.171877)
Longitude:8213'27"W (-82.224114)
Datum:WGS 1984
Elevation:89 ft (27 m)
Variation:5.88W (WMM2015 magnetic declination)
-0.09 annual change
Runways:2
Longest:7467 × 150 ft (2276 × 45.5 m), paved

Time
Time Zone:UTC-5 (DST-4)
Local Time:

Weather
METAR:KOCF 222304Z 23008KT 10SM SCT050 27/22 A3003 RMK AO2 LTG DSNT SW AND W TSE2258 $

Related Locations
Nearby:
Farthest:USL: 11466 mi / 18453 km
Useless Loop, WA, AU

Find:

   beyond  
but within

Other Information
Maps:
NOTAMs:
Links:
Sources:

  
flag of United States
flag of Florida
  

Airport Diagram

Airport diagram for OCF

Airport diagram PDF

Sectional Chart

Flight Planning
at skyvector.com

Satellite Image

Google Maps Satellite view

 

Copyright © 2004-2017 Karl L. Swartz. All rights reserved.
The Great Circle Mapper name and logo are trademarks of the Great Circle Mapper.
All other trademarks mentioned herein belong to their respective owners.
Please see credits for attibutions and further copyright information.

  Follow gcmap on Facebook Follow gcmap on Twitter Follow gcmap on Google+ GCmap on LinkedIn

hCard Microformat

Geo Microformat